Lambert, Missouri
Current Conditions -  °F | °C
As of 1:53 PM on Friday 31 Oct 2014 (Local Time) from KCGI Reporting Station
Clear Clear  
Wind Chill: 42°   Ceiling: Unl
Heat Index: 49°   Visibility: 10mi
Dew Point: 25°   Wind: 23mph
Humidity: 39%   Direction: 360°N
Pressure: 30.21"   Gusts: 36mph
Location:  37.0755°N, 89.5496°W
Report Text: KCGI 311853Z 36020G31KT 10SM CLR 09/M04 A3021 RMK AO2 PK WND 34035/1838 SLP229 T00941039
Loading
Personal Weather Stations






























Interactive Weather Map
Tropical Storm Tracking
New forecast layout! Learn more

10-Day Weather Forecast

Advertisements
Track Severe Weather on mobile